sensor_id;sensor_type;location;lat;lon;timestamp;P1;durP1;ratioP1;P2;durP2;ratioP2
41829;SDS011;38614;43.472;23.936;2024-01-10T00:00:33;8.97;;;5.43;;
41829;SDS011;38614;43.472;23.936;2024-01-10T00:03:22;15.33;;;8.00;;
41829;SDS011;38614;43.472;23.936;2024-01-10T00:06:10;12.07;;;5.40;;
41829;SDS011;38614;43.472;23.936;2024-01-10T00:08:58;10.57;;;5.20;;
41829;SDS011;38614;43.472;23.936;2024-01-10T00:11:45;22.83;;;7.90;;
41829;SDS011;38614;43.472;23.936;2024-01-10T00:14:33;26.77;;;7.47;;
41829;SDS011;38614;43.472;23.936;2024-01-10T00:17:22;28.10;;;9.90;;
41829;SDS011;38614;43.472;23.936;2024-01-10T00:20:10;28.30;;;7.67;;
41829;SDS011;38614;43.472;23.936;2024-01-10T00:22:58;18.60;;;6.97;;
41829;SDS011;38614;43.472;23.936;2024-01-10T00:25:46;17.87;;;6.07;;
41829;SDS011;38614;43.472;23.936;2024-01-10T00:28:33;19.90;;;6.50;;
41829;SDS011;38614;43.472;23.936;2024-01-10T00:31:21;19.67;;;6.17;;
41829;SDS011;38614;43.472;23.936;2024-01-10T00:34:09;30.10;;;7.03;;
41829;SDS011;38614;43.472;23.936;2024-01-10T00:36:57;17.80;;;5.90;;
41829;SDS011;38614;43.472;23.936;2024-01-10T00:39:45;16.60;;;5.53;;
41829;SDS011;38614;43.472;23.936;2024-01-10T00:42:33;17.30;;;6.83;;
41829;SDS011;38614;43.472;23.936;2024-01-10T00:45:21;47.80;;;11.27;;
41829;SDS011;38614;43.472;23.936;2024-01-10T00:48:09;47.73;;;10.37;;
41829;SDS011;38614;43.472;23.936;2024-01-10T00:50:56;19.20;;;7.40;;
41829;SDS011;38614;43.472;23.936;2024-01-10T00:53:44;7.17;;;4.53;;
41829;SDS011;38614;43.472;23.936;2024-01-10T00:56:32;13.57;;;5.10;;
41829;SDS011;38614;43.472;23.936;2024-01-10T00:59:21;14.00;;;4.93;;
41829;SDS011;38614;43.472;23.936;2024-01-10T01:02:09;8.70;;;3.73;;
41829;SDS011;38614;43.472;23.936;2024-01-10T01:04:56;8.70;;;5.07;;
41829;SDS011;38614;43.472;23.936;2024-01-10T01:07:44;8.00;;;4.87;;
41829;SDS011;38614;43.472;23.936;2024-01-10T01:10:33;9.57;;;4.47;;
41829;SDS011;38614;43.472;23.936;2024-01-10T01:16:12;9.27;;;3.80;;
41829;SDS011;38614;43.472;23.936;2024-01-10T01:18:59;13.03;;;4.63;;
41829;SDS011;38614;43.472;23.936;2024-01-10T01:21:47;9.33;;;3.70;;
41829;SDS011;38614;43.472;23.936;2024-01-10T01:24:35;8.70;;;4.17;;
41829;SDS011;38614;43.472;23.936;2024-01-10T01:27:23;5.27;;;3.53;;
41829;SDS011;38614;43.472;23.936;2024-01-10T01:30:11;6.50;;;4.00;;
41829;SDS011;38614;43.472;23.936;2024-01-10T01:32:59;8.50;;;4.27;;
41829;SDS011;38614;43.472;23.936;2024-01-10T01:35:46;7.73;;;3.60;;
41829;SDS011;38614;43.472;23.936;2024-01-10T01:38:35;8.47;;;3.43;;
41829;SDS011;38614;43.472;23.936;2024-01-10T01:41:23;11.07;;;4.00;;
41829;SDS011;38614;43.472;23.936;2024-01-10T01:44:10;11.27;;;4.67;;
41829;SDS011;38614;43.472;23.936;2024-01-10T01:46:58;10.73;;;4.27;;
41829;SDS011;38614;43.472;23.936;2024-01-10T01:49:48;8.47;;;5.30;;
41829;SDS011;38614;43.472;23.936;2024-01-10T01:52:36;16.27;;;6.43;;
41829;SDS011;38614;43.472;23.936;2024-01-10T01:55:24;18.17;;;6.77;;
41829;SDS011;38614;43.472;23.936;2024-01-10T01:58:12;7.53;;;5.00;;
41829;SDS011;38614;43.472;23.936;2024-01-10T02:01:04;13.17;;;3.73;;
41829;SDS011;38614;43.472;23.936;2024-01-10T02:03:53;6.55;;;3.80;;
41829;SDS011;38614;43.472;23.936;2024-01-10T02:06:41;5.63;;;3.13;;
41829;SDS011;38614;43.472;23.936;2024-01-10T02:09:29;10.43;;;4.70;;
41829;SDS011;38614;43.472;23.936;2024-01-10T02:12:17;11.73;;;7.97;;
41829;SDS011;38614;43.472;23.936;2024-01-10T02:15:05;12.00;;;6.07;;
41829;SDS011;38614;43.472;23.936;2024-01-10T02:17:53;13.70;;;8.00;;
41829;SDS011;38614;43.472;23.936;2024-01-10T02:20:44;9.80;;;5.13;;
41829;SDS011;38614;43.472;23.936;2024-01-10T02:23:32;12.88;;;8.57;;
41829;SDS011;38614;43.472;23.936;2024-01-10T02:26:20;18.43;;;6.80;;
41829;SDS011;38614;43.472;23.936;2024-01-10T02:29:11;13.20;;;6.43;;
41829;SDS011;38614;43.472;23.936;2024-01-10T02:31:59;9.90;;;5.93;;
41829;SDS011;38614;43.472;23.936;2024-01-10T02:34:47;15.63;;;6.10;;
41829;SDS011;38614;43.472;23.936;2024-01-10T02:37:35;11.77;;;7.13;;
41829;SDS011;38614;43.472;23.936;2024-01-10T02:40:23;16.10;;;7.20;;
41829;SDS011;38614;43.472;23.936;2024-01-10T02:43:11;14.07;;;7.30;;
41829;SDS011;38614;43.472;23.936;2024-01-10T02:45:59;14.57;;;8.17;;
41829;SDS011;38614;43.472;23.936;2024-01-10T02:48:47;13.80;;;8.50;;
41829;SDS011;38614;43.472;23.936;2024-01-10T02:51:35;21.73;;;10.50;;
41829;SDS011;38614;43.472;23.936;2024-01-10T02:54:22;9.17;;;5.67;;
41829;SDS011;38614;43.472;23.936;2024-01-10T02:57:10;9.50;;;5.93;;
41829;SDS011;38614;43.472;23.936;2024-01-10T02:59:57;8.43;;;5.43;;
41829;SDS011;38614;43.472;23.936;2024-01-10T03:02:45;8.27;;;5.37;;
41829;SDS011;38614;43.472;23.936;2024-01-10T03:05:33;7.70;;;5.07;;
41829;SDS011;38614;43.472;23.936;2024-01-10T03:08:21;16.30;;;5.83;;
41829;SDS011;38614;43.472;23.936;2024-01-10T03:11:09;13.47;;;4.70;;
41829;SDS011;38614;43.472;23.936;2024-01-10T03:14:30;9.27;;;4.27;;
41829;SDS011;38614;43.472;23.936;2024-01-10T03:17:10;14.57;;;4.80;;
41829;SDS011;38614;43.472;23.936;2024-01-10T03:19:58;12.50;;;3.60;;
41829;SDS011;38614;43.472;23.936;2024-01-10T03:22:46;11.10;;;5.43;;
41829;SDS011;38614;43.472;23.936;2024-01-10T03:25:34;16.33;;;9.53;;
41829;SDS011;38614;43.472;23.936;2024-01-10T03:28:22;8.20;;;4.67;;
41829;SDS011;38614;43.472;23.936;2024-01-10T03:31:10;6.90;;;4.80;;
41829;SDS011;38614;43.472;23.936;2024-01-10T03:33:58;14.13;;;7.27;;
41829;SDS011;38614;43.472;23.936;2024-01-10T03:36:46;10.10;;;6.27;;
41829;SDS011;38614;43.472;23.936;2024-01-10T03:39:34;10.00;;;4.77;;
41829;SDS011;38614;43.472;23.936;2024-01-10T03:42:22;17.10;;;9.83;;
41829;SDS011;38614;43.472;23.936;2024-01-10T03:45:10;22.50;;;7.87;;
41829;SDS011;38614;43.472;23.936;2024-01-10T03:47:57;33.83;;;13.37;;
41829;SDS011;38614;43.472;23.936;2024-01-10T03:50:48;24.83;;;14.87;;
41829;SDS011;38614;43.472;23.936;2024-01-10T03:53:36;45.77;;;21.67;;
41829;SDS011;38614;43.472;23.936;2024-01-10T03:56:23;34.97;;;14.50;;
41829;SDS011;38614;43.472;23.936;2024-01-10T03:59:11;42.27;;;14.80;;
41829;SDS011;38614;43.472;23.936;2024-01-10T04:01:59;33.57;;;11.50;;
41829;SDS011;38614;43.472;23.936;2024-01-10T04:04:50;18.20;;;6.57;;
41829;SDS011;38614;43.472;23.936;2024-01-10T04:10:40;22.60;;;8.97;;
41829;SDS011;38614;43.472;23.936;2024-01-10T04:13:28;27.57;;;10.53;;
41829;SDS011;38614;43.472;23.936;2024-01-10T04:16:15;30.17;;;9.47;;
41829;SDS011;38614;43.472;23.936;2024-01-10T04:19:03;14.70;;;7.97;;
41829;SDS011;38614;43.472;23.936;2024-01-10T04:21:51;14.97;;;6.63;;
41829;SDS011;38614;43.472;23.936;2024-01-10T04:24:39;10.03;;;5.60;;
41829;SDS011;38614;43.472;23.936;2024-01-10T04:27:30;15.23;;;6.57;;
41829;SDS011;38614;43.472;23.936;2024-01-10T04:30:17;11.03;;;4.70;;
41829;SDS011;38614;43.472;23.936;2024-01-10T04:33:05;13.77;;;8.20;;
41829;SDS011;38614;43.472;23.936;2024-01-10T04:35:53;18.83;;;7.30;;
41829;SDS011;38614;43.472;23.936;2024-01-10T04:38:41;9.97;;;6.37;;
41829;SDS011;38614;43.472;23.936;2024-01-10T04:41:29;12.47;;;6.40;;
41829;SDS011;38614;43.472;23.936;2024-01-10T04:44:16;19.10;;;8.63;;
41829;SDS011;38614;43.472;23.936;2024-01-10T04:47:05;24.20;;;11.60;;
41829;SDS011;38614;43.472;23.936;2024-01-10T04:49:54;28.60;;;11.20;;
41829;SDS011;38614;43.472;23.936;2024-01-10T04:52:41;30.30;;;11.27;;
41829;SDS011;38614;43.472;23.936;2024-01-10T04:55:31;28.73;;;10.73;;
41829;SDS011;38614;43.472;23.936;2024-01-10T04:58:19;14.17;;;9.10;;
41829;SDS011;38614;43.472;23.936;2024-01-10T05:01:07;25.50;;;12.00;;
41829;SDS011;38614;43.472;23.936;2024-01-10T05:03:55;21.40;;;9.47;;
41829;SDS011;38614;43.472;23.936;2024-01-10T05:06:42;21.77;;;10.00;;
41829;SDS011;38614;43.472;23.936;2024-01-10T05:09:30;26.93;;;9.83;;
41829;SDS011;38614;43.472;23.936;2024-01-10T05:12:18;14.57;;;8.13;;
41829;SDS011;38614;43.472;23.936;2024-01-10T05:15:06;12.20;;;6.57;;
41829;SDS011;38614;43.472;23.936;2024-01-10T05:17:54;14.83;;;6.60;;
41829;SDS011;38614;43.472;23.936;2024-01-10T05:20:41;17.33;;;6.37;;
41829;SDS011;38614;43.472;23.936;2024-01-10T05:23:30;18.07;;;8.67;;
41829;SDS011;38614;43.472;23.936;2024-01-10T05:26:17;16.43;;;8.10;;
41829;SDS011;38614;43.472;23.936;2024-01-10T05:29:05;15.27;;;6.67;;
41829;SDS011;38614;43.472;23.936;2024-01-10T05:31:53;16.33;;;8.03;;
41829;SDS011;38614;43.472;23.936;2024-01-10T05:34:41;16.13;;;8.13;;
41829;SDS011;38614;43.472;23.936;2024-01-10T05:37:29;12.50;;;5.77;;
41829;SDS011;38614;43.472;23.936;2024-01-10T05:40:16;22.13;;;7.33;;
41829;SDS011;38614;43.472;23.936;2024-01-10T05:43:04;32.70;;;9.43;;
41829;SDS011;38614;43.472;23.936;2024-01-10T05:45:52;18.83;;;9.50;;
41829;SDS011;38614;43.472;23.936;2024-01-10T05:48:40;32.17;;;12.73;;
41829;SDS011;38614;43.472;23.936;2024-01-10T05:51:28;39.77;;;18.00;;
41829;SDS011;38614;43.472;23.936;2024-01-10T05:54:16;23.53;;;11.70;;
41829;SDS011;38614;43.472;23.936;2024-01-10T05:57:05;18.53;;;9.83;;
41829;SDS011;38614;43.472;23.936;2024-01-10T05:59:53;34.27;;;16.43;;
41829;SDS011;38614;43.472;23.936;2024-01-10T06:02:44;53.20;;;20.53;;
41829;SDS011;38614;43.472;23.936;2024-01-10T06:05:32;38.80;;;15.53;;
41829;SDS011;38614;43.472;23.936;2024-01-10T06:08:20;24.57;;;12.33;;
41829;SDS011;38614;43.472;23.936;2024-01-10T06:11:10;25.60;;;13.37;;
41829;SDS011;38614;43.472;23.936;2024-01-10T06:13:58;30.23;;;13.53;;
41829;SDS011;38614;43.472;23.936;2024-01-10T06:16:45;37.80;;;16.23;;
41829;SDS011;38614;43.472;23.936;2024-01-10T06:19:35;42.90;;;15.27;;
41829;SDS011;38614;43.472;23.936;2024-01-10T06:22:23;46.73;;;18.07;;
41829;SDS011;38614;43.472;23.936;2024-01-10T06:25:15;32.00;;;17.87;;
41829;SDS011;38614;43.472;23.936;2024-01-10T06:28:03;24.43;;;12.20;;
41829;SDS011;38614;43.472;23.936;2024-01-10T06:30:52;36.73;;;15.63;;
41829;SDS011;38614;43.472;23.936;2024-01-10T06:33:40;35.93;;;16.93;;
41829;SDS011;38614;43.472;23.936;2024-01-10T06:36:28;32.07;;;12.33;;
41829;SDS011;38614;43.472;23.936;2024-01-10T06:39:15;22.33;;;9.47;;
41829;SDS011;38614;43.472;23.936;2024-01-10T06:42:07;21.27;;;8.25;;
41829;SDS011;38614;43.472;23.936;2024-01-10T06:44:58;18.40;;;6.63;;
41829;SDS011;38614;43.472;23.936;2024-01-10T06:47:45;8.37;;;4.53;;
41829;SDS011;38614;43.472;23.936;2024-01-10T06:50:33;19.33;;;8.27;;
41829;SDS011;38614;43.472;23.936;2024-01-10T06:53:21;21.37;;;9.87;;
41829;SDS011;38614;43.472;23.936;2024-01-10T06:56:09;29.63;;;12.83;;
41829;SDS011;38614;43.472;23.936;2024-01-10T06:58:57;27.27;;;12.13;;
41829;SDS011;38614;43.472;23.936;2024-01-10T07:01:45;17.83;;;10.60;;
41829;SDS011;38614;43.472;23.936;2024-01-10T07:04:39;14.27;;;6.67;;
41829;SDS011;38614;43.472;23.936;2024-01-10T07:07:26;15.03;;;4.93;;
41829;SDS011;38614;43.472;23.936;2024-01-10T07:10:14;19.27;;;6.73;;
41829;SDS011;38614;43.472;23.936;2024-01-10T07:13:02;19.80;;;8.17;;
41829;SDS011;38614;43.472;23.936;2024-01-10T07:15:52;17.80;;;9.27;;
41829;SDS011;38614;43.472;23.936;2024-01-10T07:18:40;13.57;;;5.40;;
41829;SDS011;38614;43.472;23.936;2024-01-10T07:21:31;13.50;;;5.67;;
41829;SDS011;38614;43.472;23.936;2024-01-10T07:24:22;26.67;;;10.53;;
41829;SDS011;38614;43.472;23.936;2024-01-10T07:27:10;29.97;;;12.17;;
41829;SDS011;38614;43.472;23.936;2024-01-10T07:29:59;28.17;;;12.73;;
41829;SDS011;38614;43.472;23.936;2024-01-10T07:32:47;18.80;;;10.23;;
41829;SDS011;38614;43.472;23.936;2024-01-10T07:35:36;20.53;;;11.10;;
41829;SDS011;38614;43.472;23.936;2024-01-10T07:38:25;27.67;;;14.17;;
41829;SDS011;38614;43.472;23.936;2024-01-10T07:41:13;36.30;;;18.20;;
41829;SDS011;38614;43.472;23.936;2024-01-10T07:44:00;20.23;;;9.50;;
41829;SDS011;38614;43.472;23.936;2024-01-10T07:46:48;17.33;;;7.20;;
41829;SDS011;38614;43.472;23.936;2024-01-10T07:49:38;16.03;;;7.07;;
41829;SDS011;38614;43.472;23.936;2024-01-10T07:52:26;8.40;;;5.17;;
41829;SDS011;38614;43.472;23.936;2024-01-10T07:55:13;11.27;;;5.23;;
41829;SDS011;38614;43.472;23.936;2024-01-10T07:58:01;9.57;;;5.57;;
41829;SDS011;38614;43.472;23.936;2024-01-10T08:00:49;12.93;;;6.13;;
41829;SDS011;38614;43.472;23.936;2024-01-10T08:03:37;10.10;;;6.60;;
41829;SDS011;38614;43.472;23.936;2024-01-10T08:06:25;12.20;;;5.83;;
41829;SDS011;38614;43.472;23.936;2024-01-10T08:09:19;5.53;;;4.30;;
41829;SDS011;38614;43.472;23.936;2024-01-10T08:12:07;10.30;;;4.67;;
41829;SDS011;38614;43.472;23.936;2024-01-10T08:14:54;20.60;;;4.90;;
41829;SDS011;38614;43.472;23.936;2024-01-10T08:17:42;11.67;;;6.67;;
41829;SDS011;38614;43.472;23.936;2024-01-10T08:20:31;7.43;;;4.47;;
41829;SDS011;38614;43.472;23.936;2024-01-10T08:23:19;10.43;;;4.20;;
41829;SDS011;38614;43.472;23.936;2024-01-10T08:26:08;9.77;;;4.97;;
41829;SDS011;38614;43.472;23.936;2024-01-10T08:28:56;15.47;;;5.83;;
41829;SDS011;38614;43.472;23.936;2024-01-10T08:31:44;14.27;;;6.27;;
41829;SDS011;38614;43.472;23.936;2024-01-10T08:34:31;16.40;;;8.27;;
41829;SDS011;38614;43.472;23.936;2024-01-10T08:37:19;16.97;;;8.60;;
41829;SDS011;38614;43.472;23.936;2024-01-10T08:40:08;15.43;;;8.30;;
41829;SDS011;38614;43.472;23.936;2024-01-10T08:42:59;24.65;;;11.15;;
41829;SDS011;38614;43.472;23.936;2024-01-10T08:45:47;27.27;;;12.93;;
41829;SDS011;38614;43.472;23.936;2024-01-10T08:48:35;31.73;;;13.40;;
41829;SDS011;38614;43.472;23.936;2024-01-10T08:51:24;25.83;;;14.20;;
41829;SDS011;38614;43.472;23.936;2024-01-10T08:54:12;35.37;;;14.03;;
41829;SDS011;38614;43.472;23.936;2024-01-10T08:57:07;31.47;;;14.47;;
41829;SDS011;38614;43.472;23.936;2024-01-10T08:59:55;27.60;;;15.20;;
41829;SDS011;38614;43.472;23.936;2024-01-10T09:02:43;34.87;;;15.27;;
41829;SDS011;38614;43.472;23.936;2024-01-10T09:05:31;27.73;;;13.03;;
41829;SDS011;38614;43.472;23.936;2024-01-10T09:08:20;35.97;;;13.33;;
41829;SDS011;38614;43.472;23.936;2024-01-10T09:11:07;29.67;;;12.43;;
41829;SDS011;38614;43.472;23.936;2024-01-10T09:13:55;22.70;;;12.23;;
41829;SDS011;38614;43.472;23.936;2024-01-10T09:16:44;37.83;;;14.83;;
41829;SDS011;38614;43.472;23.936;2024-01-10T09:19:32;35.87;;;12.90;;
41829;SDS011;38614;43.472;23.936;2024-01-10T09:22:20;43.42;;;13.40;;
41829;SDS011;38614;43.472;23.936;2024-01-10T09:25:07;36.38;;;13.65;;
41829;SDS011;38614;43.472;23.936;2024-01-10T09:27:56;21.50;;;9.90;;
41829;SDS011;38614;43.472;23.936;2024-01-10T09:30:44;19.70;;;8.15;;
41829;SDS011;38614;43.472;23.936;2024-01-10T09:33:32;16.13;;;7.93;;
41829;SDS011;38614;43.472;23.936;2024-01-10T09:36:20;18.15;;;8.00;;
41829;SDS011;38614;43.472;23.936;2024-01-10T09:39:08;17.20;;;7.18;;
41829;SDS011;38614;43.472;23.936;2024-01-10T09:42:01;35.25;;;11.98;;
41829;SDS011;38614;43.472;23.936;2024-01-10T09:44:53;26.02;;;8.80;;
41829;SDS011;38614;43.472;23.936;2024-01-10T09:47:41;49.65;;;13.65;;
41829;SDS011;38614;43.472;23.936;2024-01-10T09:50:30;31.90;;;12.73;;
41829;SDS011;38614;43.472;23.936;2024-01-10T09:53:21;32.15;;;9.30;;
41829;SDS011;38614;43.472;23.936;2024-01-10T09:56:10;21.33;;;9.50;;
41829;SDS011;38614;43.472;23.936;2024-01-10T09:58:58;29.58;;;10.63;;
41829;SDS011;38614;43.472;23.936;2024-01-10T10:01:48;18.17;;;7.72;;
41829;SDS011;38614;43.472;23.936;2024-01-10T10:04:36;21.70;;;11.25;;
41829;SDS011;38614;43.472;23.936;2024-01-10T10:07:24;23.85;;;9.45;;
41829;SDS011;38614;43.472;23.936;2024-01-10T10:10:12;7.60;;;4.75;;
41829;SDS011;38614;43.472;23.936;2024-01-10T10:13:03;14.45;;;4.90;;
41829;SDS011;38614;43.472;23.936;2024-01-10T10:16:03;10.93;;;4.82;;
41829;SDS011;38614;43.472;23.936;2024-01-10T10:18:51;14.85;;;3.35;;
41829;SDS011;38614;43.472;23.936;2024-01-10T10:21:44;9.88;;;2.95;;
41829;SDS011;38614;43.472;23.936;2024-01-10T10:24:34;20.38;;;3.33;;
41829;SDS011;38614;43.472;23.936;2024-01-10T10:27:21;9.35;;;3.08;;
41829;SDS011;38614;43.472;23.936;2024-01-10T10:30:09;10.00;;;4.60;;
41829;SDS011;38614;43.472;23.936;2024-01-10T10:32:57;9.70;;;2.40;;
41829;SDS011;38614;43.472;23.936;2024-01-10T10:35:45;8.48;;;3.28;;
41829;SDS011;38614;43.472;23.936;2024-01-10T10:38:33;5.53;;;2.38;;
41829;SDS011;38614;43.472;23.936;2024-01-10T10:41:21;4.72;;;2.03;;
41829;SDS011;38614;43.472;23.936;2024-01-10T10:44:12;8.32;;;2.67;;
41829;SDS011;38614;43.472;23.936;2024-01-10T10:47:04;5.55;;;1.35;;
41829;SDS011;38614;43.472;23.936;2024-01-10T10:49:59;12.63;;;2.00;;
41829;SDS011;38614;43.472;23.936;2024-01-10T10:52:48;5.22;;;1.38;;
41829;SDS011;38614;43.472;23.936;2024-01-10T10:55:36;1.77;;;1.13;;
41829;SDS011;38614;43.472;23.936;2024-01-10T10:58:24;5.28;;;1.45;;
41829;SDS011;38614;43.472;23.936;2024-01-10T11:01:13;1.15;;;0.63;;
41829;SDS011;38614;43.472;23.936;2024-01-10T11:04:01;4.63;;;1.58;;
41829;SDS011;38614;43.472;23.936;2024-01-10T11:06:51;6.47;;;2.05;;
41829;SDS011;38614;43.472;23.936;2024-01-10T11:09:39;7.63;;;2.47;;
41829;SDS011;38614;43.472;23.936;2024-01-10T11:12:38;7.50;;;1.77;;
41829;SDS011;38614;43.472;23.936;2024-01-10T11:15:43;5.45;;;2.22;;
41829;SDS011;38614;43.472;23.936;2024-01-10T11:18:42;2.78;;;1.85;;
41829;SDS011;38614;43.472;23.936;2024-01-10T11:24:27;10.55;;;4.18;;
41829;SDS011;38614;43.472;23.936;2024-01-10T11:27:16;14.55;;;6.07;;
41829;SDS011;38614;43.472;23.936;2024-01-10T11:30:04;9.90;;;3.70;;
41829;SDS011;38614;43.472;23.936;2024-01-10T11:32:55;8.45;;;4.05;;
41829;SDS011;38614;43.472;23.936;2024-01-10T11:36:05;4.28;;;2.60;;
41829;SDS011;38614;43.472;23.936;2024-01-10T11:41:39;9.05;;;2.35;;
41829;SDS011;38614;43.472;23.936;2024-01-10T11:44:28;8.25;;;2.45;;
41829;SDS011;38614;43.472;23.936;2024-01-10T11:47:17;6.10;;;2.55;;
41829;SDS011;38614;43.472;23.936;2024-01-10T11:50:07;5.93;;;3.58;;
41829;SDS011;38614;43.472;23.936;2024-01-10T11:52:55;8.80;;;4.03;;
41829;SDS011;38614;43.472;23.936;2024-01-10T11:55:51;6.57;;;3.60;;
41829;SDS011;38614;43.472;23.936;2024-01-10T12:01:43;5.63;;;2.50;;
41829;SDS011;38614;43.472;23.936;2024-01-10T12:04:32;9.20;;;3.50;;
41829;SDS011;38614;43.472;23.936;2024-01-10T12:07:33;11.60;;;2.07;;
41829;SDS011;38614;43.472;23.936;2024-01-10T12:10:20;5.00;;;1.80;;
41829;SDS011;38614;43.472;23.936;2024-01-10T12:13:08;7.87;;;2.43;;
41829;SDS011;38614;43.472;23.936;2024-01-10T12:15:56;3.03;;;1.70;;
41829;SDS011;38614;43.472;23.936;2024-01-10T12:18:43;9.27;;;2.13;;
41829;SDS011;38614;43.472;23.936;2024-01-10T12:21:31;5.53;;;2.63;;
41829;SDS011;38614;43.472;23.936;2024-01-10T12:24:19;4.10;;;1.73;;
41829;SDS011;38614;43.472;23.936;2024-01-10T12:27:07;4.07;;;1.63;;
41829;SDS011;38614;43.472;23.936;2024-01-10T12:29:55;7.43;;;2.00;;
41829;SDS011;38614;43.472;23.936;2024-01-10T12:32:43;3.10;;;1.23;;
41829;SDS011;38614;43.472;23.936;2024-01-10T12:35:34;10.27;;;1.27;;
41829;SDS011;38614;43.472;23.936;2024-01-10T12:38:21;4.27;;;1.47;;
41829;SDS011;38614;43.472;23.936;2024-01-10T12:41:10;12.87;;;2.93;;
41829;SDS011;38614;43.472;23.936;2024-01-10T12:43:58;4.20;;;1.47;;
41829;SDS011;38614;43.472;23.936;2024-01-10T12:46:50;6.03;;;2.10;;
41829;SDS011;38614;43.472;23.936;2024-01-10T12:49:40;7.97;;;4.23;;
41829;SDS011;38614;43.472;23.936;2024-01-10T12:52:28;6.53;;;3.30;;
41829;SDS011;38614;43.472;23.936;2024-01-10T12:55:15;6.50;;;3.30;;
41829;SDS011;38614;43.472;23.936;2024-01-10T12:58:05;6.13;;;2.57;;
41829;SDS011;38614;43.472;23.936;2024-01-10T13:00:54;5.07;;;3.23;;
41829;SDS011;38614;43.472;23.936;2024-01-10T13:03:43;7.13;;;3.17;;
41829;SDS011;38614;43.472;23.936;2024-01-10T13:06:31;7.50;;;3.83;;
41829;SDS011;38614;43.472;23.936;2024-01-10T13:09:19;17.50;;;4.27;;
41829;SDS011;38614;43.472;23.936;2024-01-10T13:12:06;10.70;;;5.50;;
41829;SDS011;38614;43.472;23.936;2024-01-10T13:14:56;10.33;;;4.70;;
41829;SDS011;38614;43.472;23.936;2024-01-10T13:17:48;26.92;;;6.15;;
41829;SDS011;38614;43.472;23.936;2024-01-10T13:20:36;11.90;;;5.57;;
41829;SDS011;38614;43.472;23.936;2024-01-10T13:23:25;13.27;;;5.83;;
41829;SDS011;38614;43.472;23.936;2024-01-10T13:26:13;22.97;;;7.47;;
41829;SDS011;38614;43.472;23.936;2024-01-10T13:29:01;27.70;;;8.30;;
41829;SDS011;38614;43.472;23.936;2024-01-10T13:31:50;19.13;;;4.90;;
41829;SDS011;38614;43.472;23.936;2024-01-10T13:34:41;11.87;;;7.10;;
41829;SDS011;38614;43.472;23.936;2024-01-10T13:37:29;17.10;;;9.07;;
41829;SDS011;38614;43.472;23.936;2024-01-10T13:40:18;19.00;;;6.23;;
41829;SDS011;38614;43.472;23.936;2024-01-10T13:43:11;11.30;;;5.67;;
41829;SDS011;38614;43.472;23.936;2024-01-10T13:45:59;14.10;;;4.23;;
41829;SDS011;38614;43.472;23.936;2024-01-10T13:48:53;13.67;;;6.80;;
41829;SDS011;38614;43.472;23.936;2024-01-10T13:51:40;7.80;;;5.47;;
41829;SDS011;38614;43.472;23.936;2024-01-10T13:54:28;11.77;;;6.20;;
41829;SDS011;38614;43.472;23.936;2024-01-10T13:57:16;11.27;;;5.13;;
41829;SDS011;38614;43.472;23.936;2024-01-10T14:00:05;317.07;;;59.60;;
41829;SDS011;38614;43.472;23.936;2024-01-10T14:02:59;502.50;;;144.90;;
41829;SDS011;38614;43.472;23.936;2024-01-10T14:05:48;359.00;;;86.47;;
41829;SDS011;38614;43.472;23.936;2024-01-10T14:08:39;118.33;;;32.97;;
41829;SDS011;38614;43.472;23.936;2024-01-10T14:11:28;29.38;;;9.82;;
41829;SDS011;38614;43.472;23.936;2024-01-10T14:14:16;75.33;;;17.57;;
41829;SDS011;38614;43.472;23.936;2024-01-10T14:17:13;22.43;;;8.40;;
41829;SDS011;38614;43.472;23.936;2024-01-10T14:20:01;16.00;;;6.07;;
41829;SDS011;38614;43.472;23.936;2024-01-10T14:22:49;12.40;;;5.60;;
41829;SDS011;38614;43.472;23.936;2024-01-10T14:25:38;15.50;;;7.57;;
41829;SDS011;38614;43.472;23.936;2024-01-10T14:28:27;8.80;;;4.43;;
41829;SDS011;38614;43.472;23.936;2024-01-10T14:31:15;14.93;;;6.23;;
41829;SDS011;38614;43.472;23.936;2024-01-10T14:34:15;8.73;;;3.87;;
41829;SDS011;38614;43.472;23.936;2024-01-10T14:37:03;7.37;;;3.93;;
41829;SDS011;38614;43.472;23.936;2024-01-10T14:39:51;4.73;;;2.47;;
41829;SDS011;38614;43.472;23.936;2024-01-10T14:42:39;9.43;;;3.47;;
41829;SDS011;38614;43.472;23.936;2024-01-10T15:02:17;21.23;;;7.20;;
41829;SDS011;38614;43.472;23.936;2024-01-10T15:05:10;15.87;;;7.20;;
41829;SDS011;38614;43.472;23.936;2024-01-10T15:08:05;12.77;;;5.77;;
41829;SDS011;38614;43.472;23.936;2024-01-10T15:10:57;34.50;;;13.68;;
41829;SDS011;38614;43.472;23.936;2024-01-10T15:13:50;62.10;;;25.07;;
41829;SDS011;38614;43.472;23.936;2024-01-10T15:16:38;55.87;;;25.80;;
41829;SDS011;38614;43.472;23.936;2024-01-10T15:19:26;56.67;;;26.07;;
41829;SDS011;38614;43.472;23.936;2024-01-10T15:22:16;47.23;;;20.83;;
41829;SDS011;38614;43.472;23.936;2024-01-10T15:25:08;49.40;;;22.07;;
41829;SDS011;38614;43.472;23.936;2024-01-10T15:28:01;43.03;;;21.07;;
41829;SDS011;38614;43.472;23.936;2024-01-10T15:30:54;48.93;;;19.47;;
41829;SDS011;38614;43.472;23.936;2024-01-10T15:33:42;52.27;;;20.67;;
41829;SDS011;38614;43.472;23.936;2024-01-10T15:36:32;36.43;;;19.23;;
41829;SDS011;38614;43.472;23.936;2024-01-10T15:39:22;44.87;;;21.63;;
41829;SDS011;38614;43.472;23.936;2024-01-10T15:42:11;48.67;;;19.15;;
41829;SDS011;38614;43.472;23.936;2024-01-10T15:45:00;73.80;;;32.53;;
41829;SDS011;38614;43.472;23.936;2024-01-10T15:47:49;67.13;;;32.87;;
41829;SDS011;38614;43.472;23.936;2024-01-10T15:50:37;55.07;;;28.40;;
41829;SDS011;38614;43.472;23.936;2024-01-10T15:53:24;49.80;;;25.63;;
41829;SDS011;38614;43.472;23.936;2024-01-10T15:56:14;50.17;;;21.67;;
41829;SDS011;38614;43.472;23.936;2024-01-10T15:59:02;58.63;;;24.63;;
41829;SDS011;38614;43.472;23.936;2024-01-10T16:01:50;45.43;;;21.27;;
41829;SDS011;38614;43.472;23.936;2024-01-10T16:04:41;45.50;;;20.97;;
41829;SDS011;38614;43.472;23.936;2024-01-10T16:07:29;23.97;;;12.80;;
41829;SDS011;38614;43.472;23.936;2024-01-10T16:10:29;29.20;;;9.37;;
41829;SDS011;38614;43.472;23.936;2024-01-10T16:13:20;21.40;;;9.00;;
41829;SDS011;38614;43.472;23.936;2024-01-10T16:16:08;36.93;;;11.70;;
41829;SDS011;38614;43.472;23.936;2024-01-10T16:18:56;23.23;;;12.70;;
41829;SDS011;38614;43.472;23.936;2024-01-10T16:21:44;27.23;;;13.63;;
41829;SDS011;38614;43.472;23.936;2024-01-10T16:24:35;19.67;;;12.40;;
41829;SDS011;38614;43.472;23.936;2024-01-10T16:27:24;29.02;;;14.93;;
41829;SDS011;38614;43.472;23.936;2024-01-10T16:30:15;35.23;;;16.33;;
41829;SDS011;38614;43.472;23.936;2024-01-10T16:33:02;37.10;;;17.60;;
41829;SDS011;38614;43.472;23.936;2024-01-10T16:35:50;39.63;;;17.20;;
41829;SDS011;38614;43.472;23.936;2024-01-10T16:38:38;40.43;;;21.77;;
41829;SDS011;38614;43.472;23.936;2024-01-10T16:41:27;44.00;;;18.70;;
41829;SDS011;38614;43.472;23.936;2024-01-10T16:44:15;54.67;;;25.93;;
41829;SDS011;38614;43.472;23.936;2024-01-10T16:47:04;45.40;;;20.73;;
41829;SDS011;38614;43.472;23.936;2024-01-10T16:49:54;61.83;;;27.17;;
41829;SDS011;38614;43.472;23.936;2024-01-10T16:52:42;75.93;;;34.00;;
41829;SDS011;38614;43.472;23.936;2024-01-10T16:55:30;90.23;;;33.50;;
41829;SDS011;38614;43.472;23.936;2024-01-10T16:58:19;68.90;;;33.97;;